createdAt,value
2023-04-14T00:02:15.898Z,0.80
2023-04-14T00:04:43.168Z,0.80
2023-04-14T00:07:10.275Z,0.70
2023-04-14T00:09:37.773Z,0.60
2023-04-14T00:12:06.894Z,1.00
2023-04-14T00:14:33.964Z,0.90
2023-04-14T00:17:01.422Z,0.70
2023-04-14T00:19:28.977Z,0.82
2023-04-14T00:21:56.493Z,0.55
2023-04-14T00:24:23.895Z,0.90
2023-04-14T00:26:51.538Z,0.88
2023-04-14T00:29:18.965Z,0.80
2023-04-14T00:31:45.958Z,1.13
2023-04-14T00:34:13.481Z,0.80
2023-04-14T00:36:40.842Z,0.73
2023-04-14T00:39:07.839Z,0.90
2023-04-14T00:41:35.293Z,0.63
2023-04-14T00:44:02.909Z,0.77
2023-04-14T00:46:30.699Z,0.57
2023-04-14T00:48:58.155Z,0.85
2023-04-14T00:51:27.278Z,0.80
2023-04-14T00:53:55.018Z,0.70
2023-04-14T00:56:23.652Z,0.95
2023-04-14T00:58:52.526Z,1.23
2023-04-14T01:01:20.930Z,0.80
2023-04-14T01:03:48.688Z,0.77
2023-04-14T01:06:16.380Z,0.90
2023-04-14T01:08:43.792Z,0.82
2023-04-14T01:11:37.914Z,1.05
2023-04-14T01:14:29.166Z,0.77
2023-04-14T01:17:03.059Z,0.90
2023-04-14T01:19:47.481Z,1.25
2023-04-14T01:22:18.117Z,0.80
2023-04-14T01:25:14.911Z,1.17
2023-04-14T01:28:13.182Z,1.15
2023-04-14T01:31:13.501Z,0.80
2023-04-14T01:33:43.108Z,0.82
2023-04-14T01:36:19.019Z,1.10
2023-04-14T01:38:49.197Z,0.90
2023-04-14T01:41:19.729Z,0.80
2023-04-14T01:43:47.524Z,1.00
2023-04-14T01:46:17.179Z,1.00
2023-04-14T01:48:45.253Z,0.82
2023-04-14T01:51:14.841Z,1.00
2023-04-14T01:53:44.029Z,1.27
2023-04-14T01:56:12.964Z,1.38
2023-04-14T01:58:41.516Z,0.60
2023-04-14T02:01:09.103Z,0.95
2023-04-14T02:03:37.395Z,1.00
2023-04-14T02:06:06.435Z,1.00
2023-04-14T02:08:34.375Z,0.77
2023-04-14T02:11:03.561Z,1.42
2023-04-14T02:13:32.433Z,1.13
2023-04-14T02:16:01.930Z,0.80
2023-04-14T02:18:31.613Z,1.17
2023-04-14T02:21:01.548Z,1.20
2023-04-14T02:23:29.469Z,0.73
2023-04-14T02:26:03.131Z,1.02
2023-04-14T02:28:35.374Z,0.70
2023-04-14T02:33:37.467Z,1.15
2023-04-14T02:36:23.428Z,0.95
2023-04-14T02:39:00.877Z,1.27
2023-04-14T02:41:30.685Z,1.02
2023-04-14T02:44:19.045Z,1.38
2023-04-14T02:47:06.853Z,1.13
2023-04-14T02:49:43.069Z,1.23
2023-04-14T02:52:12.591Z,0.90
2023-04-14T02:54:42.895Z,1.27
2023-04-14T02:57:12.086Z,1.20
2023-04-14T02:59:44.927Z,1.33
2023-04-14T03:02:14.286Z,1.50
2023-04-14T03:04:46.443Z,1.23
2023-04-14T03:07:37.491Z,0.90
2023-04-14T03:10:06.549Z,1.00
2023-04-14T03:12:36.015Z,0.93
2023-04-14T03:15:04.094Z,0.90
2023-04-14T03:17:33.026Z,1.13
2023-04-14T03:20:01.778Z,1.02
2023-04-14T03:22:31.650Z,1.73
2023-04-14T03:25:00.667Z,2.00
2023-04-14T03:27:31.681Z,5.82
2023-04-14T03:30:03.877Z,5.00
2023-04-14T03:32:41.612Z,3.10
2023-04-14T03:35:13.048Z,2.22
2023-04-14T03:37:40.888Z,3.65
2023-04-14T03:40:11.625Z,2.97
2023-04-14T03:42:47.295Z,2.00
2023-04-14T03:45:19.545Z,1.73
2023-04-14T03:47:47.079Z,1.65
2023-04-14T03:50:16.592Z,2.42
2023-04-14T03:52:48.643Z,2.72
2023-04-14T03:55:18.820Z,1.27
2023-04-14T03:57:48.709Z,1.92
2023-04-14T04:00:17.035Z,1.80
2023-04-14T04:02:46.921Z,1.60
2023-04-14T04:05:14.943Z,1.13
2023-04-14T04:07:43.105Z,2.13
2023-04-14T04:10:11.645Z,1.38
2023-04-14T04:12:41.796Z,1.40
2023-04-14T04:15:09.956Z,1.50
2023-04-14T04:17:38.932Z,1.77
2023-04-14T04:20:14.588Z,1.50
2023-04-14T04:22:46.204Z,1.38
2023-04-14T04:25:14.331Z,1.63
2023-04-14T04:27:51.315Z,0.85
2023-04-14T04:30:20.365Z,1.10
2023-04-14T04:32:48.621Z,1.10
2023-04-14T04:35:17.294Z,2.15
2023-04-14T04:37:46.967Z,2.00
2023-04-14T04:40:14.569Z,2.47
2023-04-14T04:42:42.993Z,1.88
2023-04-14T04:45:13.184Z,1.80
2023-04-14T04:47:42.179Z,1.88
2023-04-14T04:50:09.737Z,1.70
2023-04-14T04:52:37.112Z,2.70
2023-04-14T04:55:04.920Z,2.00
2023-04-14T04:57:32.906Z,2.40
2023-04-14T05:00:00.326Z,1.33
2023-04-14T05:02:27.825Z,1.58
2023-04-14T05:04:55.439Z,1.58
2023-04-14T05:07:23.101Z,1.65
2023-04-14T05:09:50.494Z,1.80
2023-04-14T05:12:17.459Z,1.48
2023-04-14T05:14:45.189Z,1.70
2023-04-14T05:17:12.550Z,1.77
2023-04-14T05:19:39.910Z,2.15
2023-04-14T05:22:06.951Z,1.90
2023-04-14T05:24:33.920Z,0.85
2023-04-14T05:27:13.660Z,1.42
2023-04-14T05:29:42.158Z,1.20
2023-04-14T05:32:10.753Z,1.45
2023-04-14T05:34:38.167Z,1.42
2023-04-14T05:37:05.537Z,2.10
2023-04-14T05:39:32.983Z,1.80
2023-04-14T05:42:01.249Z,2.42
2023-04-14T05:44:28.714Z,2.78
2023-04-14T05:46:56.299Z,2.88
2023-04-14T05:49:23.304Z,3.05
2023-04-14T05:51:50.989Z,2.85
2023-04-14T05:54:18.337Z,2.78
2023-04-14T05:56:45.913Z,3.40
2023-04-14T05:59:13.352Z,3.47
2023-04-14T06:01:40.847Z,3.40
2023-04-14T06:04:08.790Z,2.83
2023-04-14T06:06:36.703Z,2.83
2023-04-14T06:09:04.065Z,3.33
2023-04-14T06:11:32.006Z,3.30
2023-04-14T06:14:02.111Z,2.33
2023-04-14T06:16:29.749Z,2.47
2023-04-14T06:18:57.232Z,3.33
2023-04-14T06:21:24.656Z,2.63
2023-04-14T06:23:52.059Z,3.10
2023-04-14T06:26:19.664Z,3.25
2023-04-14T06:28:47.081Z,3.42
2023-04-14T06:31:15.323Z,3.63
2023-04-14T06:33:42.723Z,5.40
2023-04-14T06:36:10.283Z,4.28
2023-04-14T06:38:37.810Z,5.25
2023-04-14T06:41:05.399Z,3.03
2023-04-14T06:43:33.169Z,3.70
2023-04-14T06:46:00.844Z,3.25
2023-04-14T06:48:28.265Z,3.47
2023-04-14T06:50:56.341Z,2.72
2023-04-14T06:53:24.112Z,2.60
2023-04-14T06:55:59.026Z,2.08
2023-04-14T06:58:28.321Z,3.25
2023-04-14T07:00:57.318Z,3.13
2023-04-14T07:03:24.940Z,2.05
2023-04-14T07:05:53.088Z,2.42
2023-04-14T07:08:21.301Z,2.58
2023-04-14T07:10:48.817Z,2.55
2023-04-14T07:13:16.276Z,2.40
2023-04-14T07:15:47.718Z,2.67
2023-04-14T07:18:15.217Z,2.60
2023-04-14T07:20:42.423Z,2.88
2023-04-14T07:23:09.811Z,2.63
2023-04-14T07:25:37.490Z,2.38
2023-04-14T07:28:06.241Z,2.53
2023-04-14T07:30:33.667Z,2.40
2023-04-14T07:33:02.385Z,2.83
2023-04-14T07:35:29.908Z,1.58
2023-04-14T07:37:56.877Z,2.42
2023-04-14T07:40:24.392Z,2.22
2023-04-14T07:42:51.997Z,2.13
2023-04-14T07:45:19.486Z,2.03
2023-04-14T07:47:46.783Z,2.00
2023-04-14T07:50:13.984Z,1.95
2023-04-14T07:52:41.588Z,2.10
2023-04-14T07:55:08.971Z,1.65
2023-04-14T07:57:47.054Z,2.00
2023-04-14T08:00:15.602Z,2.22
2023-04-14T08:02:43.173Z,1.83
2023-04-14T08:05:10.897Z,1.77
2023-04-14T08:07:38.715Z,1.95
2023-04-14T08:10:06.539Z,1.45
2023-04-14T08:12:34.022Z,2.13
2023-04-14T08:15:04.103Z,2.13
2023-04-14T08:17:32.180Z,2.20
2023-04-14T08:20:00.372Z,1.75
2023-04-14T08:22:35.197Z,1.73
2023-04-14T08:25:02.540Z,2.25
2023-04-14T08:27:29.660Z,2.40
2023-04-14T08:29:56.812Z,2.65
2023-04-14T08:32:24.235Z,1.85
2023-04-14T08:35:36.001Z,1.58
2023-04-14T08:37:43.564Z,1.92
2023-04-14T08:40:11.488Z,1.60
2023-04-14T08:42:38.868Z,1.33
2023-04-14T08:45:06.654Z,1.38
2023-04-14T08:47:36.409Z,2.10
2023-04-14T08:50:12.556Z,1.50
2023-04-14T08:52:41.628Z,1.40
2023-04-14T08:55:10.500Z,1.58
2023-04-14T08:57:38.302Z,1.63
2023-04-14T09:00:06.447Z,1.83
2023-04-14T09:02:34.298Z,1.38
2023-04-14T09:05:02.063Z,1.48
2023-04-14T09:07:30.237Z,1.55
2023-04-14T09:09:58.037Z,1.40
2023-04-14T09:12:27.496Z,1.67
2023-04-14T09:14:57.145Z,1.70
2023-04-14T09:17:26.768Z,1.33
2023-04-14T09:20:38.852Z,1.40
2023-04-14T09:22:41.461Z,1.00
2023-04-14T09:25:10.639Z,1.50
2023-04-14T09:27:38.146Z,1.48
2023-04-14T09:30:06.373Z,1.60
2023-04-14T09:32:33.631Z,1.50
2023-04-14T09:35:01.385Z,1.50
2023-04-14T09:37:42.391Z,1.20
2023-04-14T09:40:10.049Z,1.48
2023-04-14T09:42:43.017Z,1.02
2023-04-14T09:45:10.262Z,1.17
2023-04-14T09:47:37.622Z,1.48
2023-04-14T09:50:05.255Z,1.55
2023-04-14T09:52:44.809Z,1.33
2023-04-14T09:55:14.283Z,1.00
2023-04-14T09:57:47.804Z,1.40
2023-04-14T10:00:24.086Z,1.58
2023-04-14T10:03:01.539Z,1.20
2023-04-14T10:05:33.779Z,1.10
2023-04-14T10:08:06.093Z,1.38
2023-04-14T10:10:33.000Z,1.00
2023-04-14T10:13:02.180Z,1.13
2023-04-14T10:15:29.530Z,1.30
2023-04-14T10:17:56.874Z,2.00
2023-04-14T10:20:24.254Z,1.13
2023-04-14T10:22:52.735Z,1.23
2023-04-14T10:25:20.222Z,1.40
2023-04-14T10:27:47.861Z,1.20
2023-04-14T10:30:14.840Z,1.38
2023-04-14T10:32:42.854Z,1.42
2023-04-14T10:35:11.681Z,1.60
2023-04-14T10:37:38.772Z,1.05
2023-04-14T10:40:08.211Z,1.10
2023-04-14T10:42:55.546Z,1.38
2023-04-14T10:45:23.238Z,1.33
2023-04-14T10:47:50.908Z,1.30
2023-04-14T10:50:24.988Z,1.63
2023-04-14T10:52:55.845Z,1.17
2023-04-14T10:55:30.634Z,1.13
2023-04-14T10:58:08.937Z,1.42
2023-04-14T11:00:38.551Z,0.93
2023-04-14T11:03:16.764Z,1.17
2023-04-14T11:05:53.440Z,1.08
2023-04-14T11:08:34.452Z,1.08
2023-04-14T11:11:04.131Z,1.15
2023-04-14T11:13:33.018Z,1.35
2023-04-14T11:16:05.935Z,0.95
2023-04-14T11:18:37.488Z,1.42
2023-04-14T11:21:15.945Z,1.02
2023-04-14T11:23:44.024Z,1.13
2023-04-14T11:26:13.463Z,1.05
2023-04-14T11:28:43.291Z,1.30
2023-04-14T11:31:14.767Z,1.00
2023-04-14T11:33:42.251Z,1.02
2023-04-14T11:36:12.884Z,0.85
2023-04-14T11:38:40.727Z,0.63
2023-04-14T11:41:08.896Z,1.00
2023-04-14T11:43:53.151Z,1.13
2023-04-14T11:46:23.930Z,1.15
2023-04-14T11:48:58.092Z,0.88
2023-04-14T11:51:32.718Z,0.80
2023-04-14T11:54:00.990Z,1.77
2023-04-14T11:56:28.574Z,1.30
2023-04-14T11:59:04.173Z,1.35
2023-04-14T12:01:32.224Z,1.92
2023-04-14T12:03:59.561Z,1.50
2023-04-14T12:06:27.755Z,1.40
2023-04-14T12:09:03.822Z,0.63
2023-04-14T12:11:31.180Z,1.08
2023-04-14T12:13:58.756Z,1.00
2023-04-14T12:16:26.573Z,0.95
2023-04-14T12:18:54.004Z,0.88
2023-04-14T12:21:21.244Z,0.65
2023-04-14T12:23:49.220Z,0.90
2023-04-14T12:26:17.038Z,1.00
2023-04-14T12:28:45.074Z,1.25
2023-04-14T12:31:12.077Z,0.90
2023-04-14T12:33:41.411Z,1.05
2023-04-14T12:36:13.459Z,1.17
2023-04-14T12:41:07.527Z,0.60
2023-04-14T12:43:37.180Z,0.98
2023-04-14T12:46:05.578Z,0.57
2023-04-14T12:48:46.748Z,0.80
2023-04-14T12:51:16.572Z,0.70
2023-04-14T12:53:46.518Z,0.95
2023-04-14T12:56:17.452Z,0.80
2023-04-14T12:58:49.202Z,0.77
2023-04-14T13:01:19.044Z,1.33
2023-04-14T13:03:52.758Z,1.10
2023-04-14T13:06:23.026Z,1.35
2023-04-14T13:08:52.786Z,1.30
2023-04-14T13:11:21.577Z,0.65
2023-04-14T13:13:48.750Z,0.80
2023-04-14T13:16:17.856Z,1.10
2023-04-14T13:18:47.867Z,0.73
2023-04-14T13:21:15.345Z,1.15
2023-04-14T13:23:42.351Z,0.77
2023-04-14T13:26:09.640Z,0.73
2023-04-14T13:28:36.948Z,0.40
2023-04-14T13:31:04.298Z,1.95
2023-04-14T13:33:33.276Z,0.57
2023-04-14T13:36:02.626Z,0.80
2023-04-14T13:38:30.015Z,0.73
2023-04-14T13:40:57.109Z,0.85
2023-04-14T13:43:24.809Z,0.57
2023-04-14T13:45:52.850Z,0.50
2023-04-14T13:48:20.161Z,1.00
2023-04-14T13:50:47.449Z,0.90
2023-04-14T13:53:14.538Z,0.57
2023-04-14T13:55:42.471Z,0.82
2023-04-14T13:58:09.587Z,0.65
2023-04-14T14:00:36.938Z,0.60
2023-04-14T14:03:04.279Z,0.70
2023-04-14T14:05:31.588Z,0.70
2023-04-14T14:07:58.882Z,0.70
2023-04-14T14:10:25.980Z,0.45
2023-04-14T14:12:53.312Z,0.98
2023-04-14T14:15:20.452Z,0.80
2023-04-14T14:17:47.606Z,0.73
2023-04-14T14:20:14.571Z,0.60
2023-04-14T14:22:41.696Z,1.02
2023-04-14T14:25:19.539Z,0.93
2023-04-14T14:27:49.138Z,0.80
2023-04-14T14:30:16.278Z,0.70
2023-04-14T14:32:43.605Z,0.50
2023-04-14T14:35:10.649Z,0.63
2023-04-14T14:37:37.675Z,0.65
2023-04-14T14:40:05.423Z,0.60
2023-04-14T14:42:32.806Z,0.63
2023-04-14T14:45:01.108Z,1.00
2023-04-14T14:47:28.768Z,1.10
2023-04-14T14:50:02.292Z,0.70
2023-04-14T14:52:36.663Z,1.08
2023-04-14T14:55:04.815Z,0.70
2023-04-14T14:57:31.844Z,0.68
2023-04-14T14:59:58.836Z,0.95
2023-04-14T15:02:26.170Z,0.82
2023-04-14T15:04:54.464Z,0.82
2023-04-14T15:07:21.516Z,1.30
2023-04-14T15:09:49.727Z,0.60
2023-04-14T15:12:17.545Z,0.80
2023-04-14T15:14:45.208Z,0.40
2023-04-14T15:17:12.223Z,0.40
2023-04-14T15:19:39.414Z,0.82
2023-04-14T15:22:07.986Z,0.63
2023-04-14T15:24:34.963Z,0.77
2023-04-14T15:27:02.644Z,1.33
2023-04-14T15:29:30.486Z,0.90
2023-04-14T15:31:57.556Z,0.80
2023-04-14T15:34:25.319Z,0.63
2023-04-14T15:36:52.736Z,0.47
2023-04-14T15:39:19.681Z,0.50
2023-04-14T15:41:47.684Z,0.30
2023-04-14T15:44:15.101Z,0.60
2023-04-14T15:46:42.184Z,0.75
2023-04-14T15:49:09.449Z,0.65
2023-04-14T15:51:36.820Z,0.57
2023-04-14T15:54:04.794Z,0.98
2023-04-14T15:56:32.028Z,0.80
2023-04-14T15:58:59.271Z,0.55
2023-04-14T16:01:26.270Z,0.60
2023-04-14T16:03:53.344Z,0.98
2023-04-14T16:06:20.315Z,0.85
2023-04-14T16:08:47.370Z,0.85
2023-04-14T16:11:16.225Z,0.75
2023-04-14T16:13:46.309Z,0.90
2023-04-14T16:16:15.564Z,0.85
2023-04-14T16:18:42.682Z,0.90
2023-04-14T16:21:09.825Z,0.57
2023-04-14T16:23:36.837Z,1.05
2023-04-14T16:26:04.162Z,0.80
2023-04-14T16:28:31.351Z,0.80
2023-04-14T16:31:05.217Z,1.63
2023-04-14T16:33:32.690Z,1.25
2023-04-14T16:36:07.299Z,0.75
2023-04-14T16:38:34.346Z,0.80
2023-04-14T16:41:02.322Z,0.77
2023-04-14T16:43:29.305Z,0.80
2023-04-14T16:46:04.031Z,1.42
2023-04-14T16:48:32.555Z,0.60
2023-04-14T16:51:10.886Z,0.93
2023-04-14T16:53:38.916Z,1.00
2023-04-14T16:56:11.349Z,0.52
2023-04-14T16:58:39.987Z,1.10
2023-04-14T17:01:07.664Z,0.90
2023-04-14T17:03:34.907Z,0.73
2023-04-14T17:06:02.398Z,0.85
2023-04-14T17:08:29.349Z,0.90
2023-04-14T17:10:56.911Z,0.60
2023-04-14T17:13:23.930Z,0.80
2023-04-14T17:15:58.847Z,1.10
2023-04-14T17:18:29.733Z,0.90
2023-04-14T17:20:57.259Z,1.60
2023-04-14T17:23:24.519Z,1.15
2023-04-14T17:25:53.040Z,0.63
2023-04-14T17:28:22.799Z,0.88
2023-04-14T17:30:50.213Z,0.70
2023-04-14T17:33:17.485Z,1.00
2023-04-14T17:35:44.849Z,1.13
2023-04-14T17:38:11.843Z,0.88
2023-04-14T17:40:38.985Z,0.90
2023-04-14T17:43:06.141Z,1.00
2023-04-14T17:45:34.721Z,1.20
2023-04-14T17:48:02.138Z,0.93
2023-04-14T17:50:29.709Z,0.93
2023-04-14T17:52:58.652Z,1.52
2023-04-14T17:55:26.103Z,1.50
2023-04-14T17:57:54.369Z,1.10
2023-04-14T18:00:21.517Z,0.93
2023-04-14T18:02:48.914Z,1.08
2023-04-14T18:05:16.077Z,1.02
2023-04-14T18:07:43.098Z,1.00
2023-04-14T18:10:10.960Z,0.82
2023-04-14T18:12:37.926Z,1.02
2023-04-14T18:15:06.428Z,1.20
2023-04-14T18:17:36.066Z,1.02
2023-04-14T18:20:04.445Z,1.50
2023-04-14T18:22:31.991Z,1.10
2023-04-14T18:24:59.113Z,1.02
2023-04-14T18:30:01.446Z,1.40
2023-04-14T18:32:30.101Z,1.17
2023-04-14T18:34:57.583Z,1.13
2023-04-14T18:37:24.597Z,1.33
2023-04-14T18:39:51.566Z,1.30
2023-04-14T18:42:18.536Z,1.80
2023-04-14T18:44:45.620Z,1.88
2023-04-14T18:47:13.590Z,2.35
2023-04-14T18:49:40.506Z,2.60
2023-04-14T18:52:08.169Z,2.42
2023-04-14T18:54:35.717Z,2.40
2023-04-14T18:57:03.488Z,2.47
2023-04-14T18:59:30.453Z,2.22
2023-04-14T19:01:58.284Z,1.95
2023-04-14T19:04:26.651Z,2.17
2023-04-14T19:06:54.038Z,2.20
2023-04-14T19:09:21.201Z,1.60
2023-04-14T19:11:49.051Z,1.27
2023-04-14T19:14:17.335Z,1.08
2023-04-14T19:16:45.273Z,1.00
2023-04-14T19:19:12.216Z,1.20
2023-04-14T19:21:39.183Z,1.10
2023-04-14T19:24:06.621Z,1.25
2023-04-14T19:26:37.689Z,0.80
2023-04-14T19:29:04.861Z,1.50
2023-04-14T19:31:33.321Z,0.60
2023-04-14T19:34:00.670Z,0.90
2023-04-14T19:36:29.119Z,1.15
2023-04-14T19:38:56.264Z,1.42
2023-04-14T19:41:23.266Z,1.25
2023-04-14T19:43:52.114Z,1.85
2023-04-14T19:46:19.509Z,1.67
2023-04-14T19:48:46.780Z,1.08
2023-04-14T19:51:14.285Z,1.10
2023-04-14T19:53:41.883Z,1.45
2023-04-14T19:56:09.009Z,1.10
2023-04-14T19:58:36.513Z,1.02
2023-04-14T20:01:03.587Z,1.38
2023-04-14T20:03:33.096Z,1.17
2023-04-14T20:06:02.006Z,1.13
2023-04-14T20:08:30.769Z,1.50
2023-04-14T20:10:57.955Z,1.00
2023-04-14T20:13:27.642Z,1.30
2023-04-14T20:15:54.924Z,1.40
2023-04-14T20:18:26.482Z,1.15
2023-04-14T20:20:54.845Z,1.40
2023-04-14T20:23:22.264Z,1.67
2023-04-14T20:25:53.296Z,2.45
2023-04-14T20:28:23.115Z,2.00
2023-04-14T20:30:54.775Z,1.67
2023-04-14T20:33:22.351Z,2.03
2023-04-14T20:35:51.419Z,2.20
2023-04-14T20:38:19.006Z,2.10
2023-04-14T20:40:46.268Z,2.20
2023-04-14T20:43:14.332Z,2.40
2023-04-14T20:45:42.331Z,1.50
2023-04-14T20:48:09.340Z,1.58
2023-04-14T20:50:36.677Z,1.67
2023-04-14T20:53:03.691Z,1.60
2023-04-14T20:55:31.158Z,2.03
2023-04-14T20:57:58.990Z,1.30
2023-04-14T21:00:26.954Z,1.50
2023-04-14T21:02:54.429Z,1.30
2023-04-14T21:05:22.126Z,1.35
2023-04-14T21:07:49.622Z,1.15
2023-04-14T21:10:16.590Z,1.33
2023-04-14T21:15:24.833Z,0.82
2023-04-14T21:15:52.237Z,1.25
2023-04-14T21:18:19.078Z,1.38
2023-04-14T21:20:46.450Z,0.95
2023-04-14T21:23:13.415Z,1.75
2023-04-14T21:25:40.399Z,1.35
2023-04-14T21:28:08.630Z,1.35
2023-04-14T21:30:35.672Z,1.40
2023-04-14T21:33:04.779Z,1.50
2023-04-14T21:35:33.564Z,1.83
2023-04-14T21:38:00.575Z,1.17
2023-04-14T21:40:28.322Z,1.55
2023-04-14T21:42:55.315Z,1.27
2023-04-14T21:45:22.824Z,1.88
2023-04-14T21:47:50.157Z,2.15
2023-04-14T21:50:17.329Z,1.90
2023-04-14T21:52:44.807Z,2.03
2023-04-14T21:55:12.504Z,1.88
2023-04-14T21:57:47.820Z,2.60
2023-04-14T22:00:17.740Z,2.45
2023-04-14T22:02:45.838Z,2.70
2023-04-14T22:05:14.980Z,2.65
2023-04-14T22:07:42.431Z,2.80
2023-04-14T22:10:09.983Z,2.25
2023-04-14T22:12:40.744Z,2.03
2023-04-14T22:15:08.755Z,1.67
2023-04-14T22:17:37.455Z,1.75
2023-04-14T22:20:06.525Z,2.15
2023-04-14T22:22:34.591Z,1.67
2023-04-14T22:25:03.259Z,2.25
2023-04-14T22:27:30.725Z,1.50
2023-04-14T22:29:57.847Z,1.60
2023-04-14T22:32:25.699Z,1.70
2023-04-14T22:34:52.984Z,2.03
2023-04-14T22:37:20.210Z,1.58
2023-04-14T22:39:47.176Z,1.95
2023-04-14T22:42:14.305Z,1.20
2023-04-14T22:44:41.286Z,1.40
2023-04-14T22:47:08.517Z,1.30
2023-04-14T22:49:35.621Z,1.73
2023-04-14T22:52:02.976Z,1.70
2023-04-14T22:54:30.384Z,1.88
2023-04-14T22:56:57.689Z,1.50
2023-04-14T22:59:26.656Z,1.80
2023-04-14T23:01:53.932Z,1.85
2023-04-14T23:04:21.175Z,1.20
2023-04-14T23:06:48.850Z,1.45
2023-04-14T23:09:16.547Z,2.00
2023-04-14T23:11:43.483Z,2.33
2023-04-14T23:14:10.640Z,1.48
2023-04-14T23:16:37.626Z,1.67
2023-04-14T23:19:05.002Z,1.70
2023-04-14T23:21:32.235Z,1.33
2023-04-14T23:23:59.152Z,1.23
2023-04-14T23:26:26.396Z,1.10
2023-04-14T23:28:53.644Z,1.40
2023-04-14T23:31:21.075Z,1.40
2023-04-14T23:33:51.133Z,1.17
2023-04-14T23:36:18.844Z,1.17
2023-04-14T23:38:45.870Z,1.90
2023-04-14T23:41:12.896Z,1.27
2023-04-14T23:43:39.959Z,1.50
2023-04-14T23:46:07.318Z,1.45
2023-04-14T23:48:34.326Z,1.30
2023-04-14T23:51:17.944Z,1.80
2023-04-14T23:53:49.156Z,2.08
2023-04-14T23:56:16.577Z,2.13
2023-04-14T23:58:44.034Z,1.85
